createdAt,value
2023-06-11T00:01:57.348Z,2.50
2023-06-11T00:04:29.283Z,3.00
2023-06-11T00:06:57.514Z,3.00
2023-06-11T00:09:24.699Z,2.90
2023-06-11T00:11:53.885Z,3.30
2023-06-11T00:14:22.074Z,3.40
2023-06-11T00:16:49.601Z,3.60
2023-06-11T00:19:18.501Z,3.60
2023-06-11T00:24:13.363Z,2.50
2023-06-11T00:26:41.829Z,2.60
2023-06-11T00:29:09.477Z,2.80
2023-06-11T00:31:36.318Z,2.60
2023-06-11T00:34:03.757Z,2.80
2023-06-11T00:36:30.892Z,2.70
2023-06-11T00:38:58.186Z,3.00
2023-06-11T00:41:30.997Z,2.70
2023-06-11T00:43:58.391Z,2.60
2023-06-11T00:46:25.841Z,3.00
2023-06-11T00:48:53.095Z,3.00
2023-06-11T00:51:22.374Z,2.40
2023-06-11T00:53:49.187Z,2.70
2023-06-11T00:56:19.255Z,2.70
2023-06-11T00:58:47.568Z,2.20
2023-06-11T01:01:26.696Z,2.00
2023-06-11T01:03:55.738Z,2.60
2023-06-11T01:06:23.927Z,2.50
2023-06-11T01:08:54.461Z,2.70
2023-06-11T01:11:23.591Z,2.30
2023-06-11T01:13:55.313Z,2.60
2023-06-11T01:16:35.718Z,2.70
2023-06-11T01:19:48.190Z,2.50
2023-06-11T01:22:20.781Z,2.70
2023-06-11T01:25:09.336Z,2.50
2023-06-11T01:28:04.205Z,2.40
2023-06-11T01:30:33.303Z,2.50
2023-06-11T01:33:00.572Z,2.20
2023-06-11T01:35:34.553Z,2.30
2023-06-11T01:38:03.388Z,2.20
2023-06-11T01:40:39.701Z,2.10
2023-06-11T01:43:08.534Z,2.20
2023-06-11T01:45:38.331Z,2.40
2023-06-11T01:48:06.407Z,2.20
2023-06-11T01:50:34.860Z,2.50
2023-06-11T01:53:02.098Z,2.20
2023-06-11T01:55:29.659Z,2.30
2023-06-11T01:57:56.829Z,2.40
2023-06-11T02:00:24.002Z,2.20
2023-06-11T02:02:51.411Z,2.50
2023-06-11T02:05:19.114Z,2.60
2023-06-11T02:07:46.730Z,2.30
2023-06-11T02:10:13.900Z,2.30
2023-06-11T02:12:41.272Z,2.40
2023-06-11T02:15:09.076Z,1.80
2023-06-11T02:17:36.533Z,1.70
2023-06-11T02:20:07.139Z,2.00
2023-06-11T02:22:35.321Z,1.90
2023-06-11T02:25:02.968Z,1.90
2023-06-11T02:27:31.205Z,1.90
2023-06-11T02:29:59.253Z,2.00
2023-06-11T02:32:26.350Z,2.00
2023-06-11T02:34:53.273Z,1.90
2023-06-11T02:37:21.651Z,2.10
2023-06-11T02:39:48.472Z,2.20
2023-06-11T02:42:15.447Z,2.30
2023-06-11T02:44:43.246Z,1.90
2023-06-11T02:47:10.212Z,2.30
2023-06-11T02:49:37.133Z,2.20
2023-06-11T02:52:04.238Z,1.90
2023-06-11T03:02:24.803Z,2.20
2023-06-11T03:04:51.781Z,1.90
2023-06-11T03:07:19.312Z,1.80
2023-06-11T03:09:46.512Z,2.00
2023-06-11T03:12:13.929Z,2.40
2023-06-11T03:14:43.181Z,1.90
2023-06-11T03:17:10.033Z,1.90
2023-06-11T03:19:36.927Z,1.90
2023-06-11T03:22:04.509Z,2.00
2023-06-11T03:24:32.161Z,2.10
2023-06-11T03:27:06.951Z,2.00
2023-06-11T03:29:34.732Z,2.10
2023-06-11T03:32:02.462Z,1.90
2023-06-11T03:34:29.931Z,1.80
2023-06-11T03:36:58.001Z,2.00
2023-06-11T03:39:24.977Z,1.90
2023-06-11T03:41:53.181Z,1.60
2023-06-11T03:44:20.423Z,1.70
2023-06-11T03:46:48.640Z,1.70
2023-06-11T03:49:16.003Z,2.10
2023-06-11T03:51:43.232Z,1.70
2023-06-11T03:54:10.070Z,1.60
2023-06-11T03:56:37.813Z,1.70
2023-06-11T03:59:05.001Z,2.10
2023-06-11T04:01:32.981Z,1.90
2023-06-11T04:04:00.338Z,1.80
2023-06-11T04:06:29.189Z,2.10
2023-06-11T04:08:58.042Z,1.90
2023-06-11T04:11:24.937Z,1.80
2023-06-11T04:13:52.305Z,1.80
2023-06-11T04:16:19.325Z,2.00
2023-06-11T04:18:49.034Z,2.20
2023-06-11T04:21:16.485Z,1.90
2023-06-11T04:23:43.425Z,2.00
2023-06-11T04:26:11.571Z,1.70
2023-06-11T04:28:45.337Z,1.60
2023-06-11T04:31:15.805Z,1.40
2023-06-11T04:33:44.132Z,1.70
2023-06-11T04:36:12.717Z,1.40
2023-06-11T04:38:46.229Z,1.90
2023-06-11T04:41:15.614Z,1.70
2023-06-11T04:43:47.345Z,1.80
2023-06-11T04:46:14.716Z,1.80
2023-06-11T04:48:42.671Z,1.70
2023-06-11T04:51:13.170Z,2.10
2023-06-11T04:53:44.462Z,1.60
2023-06-11T04:56:12.691Z,1.90
2023-06-11T04:58:41.284Z,1.90
2023-06-11T05:01:10.014Z,2.00
2023-06-11T05:03:39.709Z,2.00
2023-06-11T05:06:09.875Z,2.00
2023-06-11T05:08:40.804Z,1.90
2023-06-11T05:11:07.888Z,1.90
2023-06-11T05:13:35.664Z,1.80
2023-06-11T05:16:05.663Z,1.80
2023-06-11T05:18:33.312Z,1.80
2023-06-11T05:21:02.852Z,1.40
2023-06-11T05:23:33.003Z,1.30
2023-06-11T05:26:13.260Z,1.40
2023-06-11T05:28:44.359Z,1.60
2023-06-11T05:31:14.082Z,1.30
2023-06-11T05:33:46.328Z,1.30
2023-06-11T05:36:14.292Z,1.50
2023-06-11T05:38:41.844Z,1.60
2023-06-11T05:41:09.182Z,1.20
2023-06-11T05:43:36.804Z,1.70
2023-06-11T05:46:03.906Z,1.70
2023-06-11T05:48:32.599Z,1.50
2023-06-11T05:50:59.508Z,1.50
2023-06-11T05:53:26.471Z,1.70
2023-06-11T05:55:55.661Z,1.70
2023-06-11T05:58:24.222Z,1.40
2023-06-11T06:00:52.921Z,1.30
2023-06-11T06:03:21.399Z,1.70
2023-06-11T06:05:48.571Z,1.60
2023-06-11T06:08:15.814Z,1.70
2023-06-11T06:10:43.709Z,1.30
2023-06-11T06:13:11.100Z,1.20
2023-06-11T06:15:39.435Z,1.30
2023-06-11T06:18:06.760Z,1.20
2023-06-11T06:20:39.911Z,1.10
2023-06-11T06:23:07.569Z,1.20
2023-06-11T06:25:38.888Z,1.50
2023-06-11T06:28:09.106Z,1.20
2023-06-11T06:30:36.664Z,1.10
2023-06-11T06:33:04.013Z,1.30
2023-06-11T06:35:32.757Z,1.40
2023-06-11T06:40:30.236Z,1.10
2023-06-11T06:42:57.216Z,1.20
2023-06-11T06:45:29.631Z,1.30
2023-06-11T06:47:58.012Z,1.00
2023-06-11T06:50:25.275Z,1.30
2023-06-11T06:52:52.293Z,1.10
2023-06-11T06:55:19.561Z,1.00
2023-06-11T06:57:46.841Z,1.00
2023-06-11T07:00:15.977Z,1.20
2023-06-11T07:02:43.981Z,1.10
2023-06-11T07:05:11.801Z,0.90
2023-06-11T07:07:41.591Z,1.10
2023-06-11T07:10:11.581Z,1.10
2023-06-11T07:12:39.799Z,0.90
2023-06-11T07:15:07.688Z,0.70
2023-06-11T07:17:36.027Z,1.00
2023-06-11T07:20:03.436Z,1.10
2023-06-11T07:22:32.391Z,1.10
2023-06-11T07:25:02.030Z,1.10
2023-06-11T07:27:29.377Z,1.10
2023-06-11T07:29:57.126Z,1.60
2023-06-11T07:32:24.996Z,1.20
2023-06-11T07:34:52.412Z,1.50
2023-06-11T07:37:20.849Z,1.40
2023-06-11T07:39:48.975Z,1.50
2023-06-11T07:42:16.756Z,1.40
2023-06-11T07:44:44.561Z,1.20
2023-06-11T07:47:11.846Z,1.00
2023-06-11T07:49:39.897Z,1.20
2023-06-11T07:52:07.810Z,1.30
2023-06-11T07:54:38.619Z,1.00
2023-06-11T07:57:10.640Z,1.00
2023-06-11T07:59:38.383Z,1.30
2023-06-11T08:02:06.009Z,1.10
2023-06-11T08:04:33.552Z,1.00
2023-06-11T08:07:00.580Z,1.10
2023-06-11T08:09:30.838Z,1.00
2023-06-11T08:11:58.232Z,1.20
2023-06-11T08:14:26.195Z,1.20
2023-06-11T08:16:53.231Z,1.00
2023-06-11T08:19:20.701Z,1.10
2023-06-11T08:21:48.496Z,1.30
2023-06-11T08:24:15.515Z,1.60
2023-06-11T08:26:43.149Z,1.40
2023-06-11T08:29:09.944Z,1.20
2023-06-11T08:31:37.592Z,1.10
2023-06-11T08:34:04.720Z,0.90
2023-06-11T08:36:32.792Z,1.00
2023-06-11T08:38:59.614Z,1.20
2023-06-11T08:41:27.578Z,1.10
2023-06-11T08:43:54.583Z,1.10
2023-06-11T08:46:22.906Z,1.20
2023-06-11T08:49:01.828Z,1.00
2023-06-11T08:51:29.715Z,1.20
2023-06-11T08:53:56.659Z,1.40
2023-06-11T08:56:23.677Z,1.00
2023-06-11T08:58:50.495Z,1.30
2023-06-11T09:01:17.644Z,1.20
2023-06-11T09:03:44.692Z,1.20
2023-06-11T09:06:11.603Z,1.50
2023-06-11T09:08:38.605Z,1.20
2023-06-11T09:11:06.045Z,1.50
2023-06-11T09:13:33.989Z,0.90
2023-06-11T09:16:01.343Z,1.00
2023-06-11T09:18:31.364Z,1.00
2023-06-11T09:21:01.270Z,1.00
2023-06-11T09:23:31.318Z,1.10
2023-06-11T09:26:02.504Z,1.30
2023-06-11T09:28:30.816Z,1.10
2023-06-11T09:30:58.064Z,1.20
2023-06-11T09:33:26.478Z,1.10
2023-06-11T09:35:53.635Z,1.30
2023-06-11T09:38:21.710Z,1.00
2023-06-11T09:40:50.910Z,1.20
2023-06-11T09:43:22.393Z,1.10
2023-06-11T09:45:56.486Z,1.20
2023-06-11T09:48:24.345Z,1.10
2023-06-11T09:50:52.917Z,1.20
2023-06-11T09:53:20.987Z,2.60
2023-06-11T09:56:05.414Z,0.90
2023-06-11T09:58:37.215Z,1.00
2023-06-11T10:01:07.167Z,0.90
2023-06-11T10:03:34.733Z,1.30
2023-06-11T10:06:01.946Z,1.00
2023-06-11T10:08:31.839Z,1.10
2023-06-11T10:11:01.567Z,1.20
2023-06-11T10:13:33.838Z,0.90
2023-06-11T10:16:01.756Z,1.40
2023-06-11T10:18:30.288Z,1.10
2023-06-11T10:21:02.178Z,1.10
2023-06-11T10:23:37.620Z,1.00
2023-06-11T10:26:04.787Z,1.10
2023-06-11T10:28:38.280Z,1.00
2023-06-11T10:31:06.047Z,1.30
2023-06-11T10:33:37.867Z,1.40
2023-06-11T10:36:08.119Z,1.30
2023-06-11T10:38:40.999Z,1.00
2023-06-11T10:41:07.796Z,1.10
2023-06-11T10:43:36.737Z,1.00
2023-06-11T10:48:33.652Z,1.50
2023-06-11T10:51:04.321Z,1.20
2023-06-11T10:53:42.120Z,1.20
2023-06-11T10:56:17.790Z,1.10
2023-06-11T10:58:52.433Z,1.10
2023-06-11T11:01:21.248Z,1.20
2023-06-11T11:03:49.946Z,1.40
2023-06-11T11:06:26.242Z,1.00
2023-06-11T11:08:56.591Z,1.20
2023-06-11T11:11:24.293Z,1.30
2023-06-11T11:13:51.838Z,1.60
2023-06-11T11:16:20.262Z,1.10
2023-06-11T11:18:50.941Z,0.80
2023-06-11T11:21:19.268Z,1.10
2023-06-11T11:23:49.986Z,0.90
2023-06-11T11:26:18.731Z,1.00
2023-06-11T11:28:46.564Z,1.10
2023-06-11T11:31:15.180Z,1.20
2023-06-11T11:33:42.023Z,1.20
2023-06-11T11:36:09.261Z,1.30
2023-06-11T11:38:37.497Z,1.20
2023-06-11T11:41:09.810Z,1.30
2023-06-11T11:43:41.051Z,1.10
2023-06-11T11:46:21.662Z,1.50
2023-06-11T11:48:48.661Z,1.30
2023-06-11T11:51:16.666Z,1.20
2023-06-11T11:53:44.924Z,1.20
2023-06-11T11:56:13.641Z,0.80
2023-06-11T11:58:41.975Z,1.10
2023-06-11T12:01:16.633Z,1.10
2023-06-11T12:03:43.639Z,1.20
2023-06-11T12:06:10.931Z,1.20
2023-06-11T12:08:38.190Z,1.20
2023-06-11T12:11:07.823Z,1.00
2023-06-11T12:13:36.435Z,1.30
2023-06-11T12:16:05.133Z,1.20
2023-06-11T12:18:34.510Z,1.30
2023-06-11T12:21:01.769Z,1.10
2023-06-11T12:23:29.386Z,1.30
2023-06-11T12:25:56.350Z,1.00
2023-06-11T12:28:23.165Z,1.40
2023-06-11T12:30:50.331Z,1.10
2023-06-11T12:33:17.704Z,1.40
2023-06-11T12:35:44.746Z,1.80
2023-06-11T12:38:12.195Z,1.30
2023-06-11T12:40:40.294Z,1.10
2023-06-11T12:43:07.186Z,1.30
2023-06-11T12:45:38.274Z,1.40
2023-06-11T12:48:06.337Z,0.90
2023-06-11T12:50:33.658Z,0.90
2023-06-11T12:53:01.698Z,1.10
2023-06-11T12:55:29.248Z,0.90
2023-06-11T12:57:56.204Z,0.70
2023-06-11T13:00:24.550Z,1.30
2023-06-11T13:02:51.502Z,1.20
2023-06-11T13:05:20.970Z,1.20
2023-06-11T13:07:49.952Z,1.00
2023-06-11T13:12:44.160Z,1.10
2023-06-11T13:15:11.588Z,1.00
2023-06-11T13:17:40.047Z,1.10
2023-06-11T13:20:07.946Z,1.00
2023-06-11T13:22:35.131Z,1.10
2023-06-11T13:25:02.205Z,1.00
2023-06-11T13:27:29.260Z,1.20
2023-06-11T13:29:56.654Z,1.30
2023-06-11T13:32:24.516Z,1.10
2023-06-11T13:34:51.607Z,0.80
2023-06-11T13:37:19.798Z,0.90
2023-06-11T13:39:46.663Z,1.00
2023-06-11T13:42:13.658Z,1.00
2023-06-11T13:44:40.963Z,1.00
2023-06-11T13:47:09.441Z,1.10
2023-06-11T13:49:36.867Z,1.20
2023-06-11T13:52:04.301Z,1.30
2023-06-11T13:54:33.416Z,1.10
2023-06-11T13:59:27.713Z,1.20
2023-06-11T14:01:56.351Z,1.20
2023-06-11T14:04:23.445Z,1.60
2023-06-11T14:06:53.123Z,1.30
2023-06-11T14:09:23.889Z,1.40
2023-06-11T14:11:52.171Z,1.10
2023-06-11T14:14:21.325Z,1.10
2023-06-11T14:16:49.868Z,1.20
2023-06-11T14:19:16.865Z,1.00
2023-06-11T14:21:44.553Z,0.90
2023-06-11T14:24:11.975Z,1.00
2023-06-11T14:26:39.497Z,1.00
2023-06-11T14:29:07.078Z,1.00
2023-06-11T14:31:35.178Z,1.00
2023-06-11T14:34:03.037Z,1.20
2023-06-11T14:36:30.966Z,1.20
2023-06-11T14:38:58.966Z,1.00
2023-06-11T14:41:27.275Z,1.10
2023-06-11T14:43:54.103Z,1.30
2023-06-11T14:46:21.119Z,1.00
2023-06-11T14:48:48.084Z,1.10
2023-06-11T14:51:15.251Z,1.10
2023-06-11T14:53:42.131Z,1.10
2023-06-11T14:56:09.183Z,1.10
2023-06-11T14:58:36.592Z,1.60
2023-06-11T15:01:05.424Z,1.20
2023-06-11T15:03:32.420Z,1.40
2023-06-11T15:06:01.207Z,0.90
2023-06-11T15:10:55.689Z,1.20
2023-06-11T15:13:22.614Z,1.10
2023-06-11T15:15:51.674Z,1.40
2023-06-11T15:18:20.799Z,1.00
2023-06-11T15:20:47.870Z,1.40
2023-06-11T15:23:15.556Z,1.10
2023-06-11T15:25:42.423Z,1.10
2023-06-11T15:28:09.361Z,1.20
2023-06-11T15:30:37.116Z,1.40
2023-06-11T15:33:04.124Z,1.20
2023-06-11T15:35:31.077Z,1.30
2023-06-11T15:37:58.984Z,1.30
2023-06-11T15:40:26.266Z,1.20
2023-06-11T15:42:53.564Z,1.20
2023-06-11T15:45:20.713Z,1.10
2023-06-11T15:47:48.663Z,1.40
2023-06-11T15:50:16.325Z,1.20
2023-06-11T15:52:43.333Z,1.00
2023-06-11T15:55:11.701Z,1.20
2023-06-11T15:57:39.195Z,1.40
2023-06-11T16:00:07.613Z,1.00
2023-06-11T16:02:35.776Z,1.00
2023-06-11T16:05:02.886Z,1.00
2023-06-11T16:07:29.996Z,1.30
2023-06-11T16:09:57.696Z,1.30
2023-06-11T16:12:25.101Z,1.80
2023-06-11T16:14:52.372Z,1.50
2023-06-11T16:17:20.634Z,1.80
2023-06-11T16:19:47.717Z,1.50
2023-06-11T16:22:14.614Z,1.30
2023-06-11T16:24:41.533Z,1.40
2023-06-11T16:27:08.383Z,1.30
2023-06-11T16:29:36.001Z,1.30
2023-06-11T16:32:03.339Z,1.30
2023-06-11T16:34:30.740Z,1.40
2023-06-11T16:36:57.539Z,1.00
2023-06-11T16:39:28.200Z,1.00
2023-06-11T16:41:56.359Z,1.10
2023-06-11T16:44:23.413Z,1.00
2023-06-11T16:46:50.806Z,1.20
2023-06-11T16:49:17.993Z,1.30
2023-06-11T16:51:44.872Z,1.10
2023-06-11T16:54:11.804Z,1.30
2023-06-11T16:56:38.684Z,1.20
2023-06-11T16:59:05.580Z,0.90
2023-06-11T17:01:32.643Z,0.90
2023-06-11T17:04:00.100Z,1.00
2023-06-11T17:06:27.598Z,1.10
2023-06-11T17:08:55.731Z,1.20
2023-06-11T17:11:22.781Z,1.10
2023-06-11T17:13:51.254Z,1.00
2023-06-11T17:16:18.151Z,1.10
2023-06-11T17:18:47.425Z,1.30
2023-06-11T17:21:14.512Z,1.50
2023-06-11T17:23:41.595Z,1.00
2023-06-11T17:26:08.703Z,0.80
2023-06-11T17:28:36.064Z,1.00
2023-06-11T17:31:03.093Z,0.90
2023-06-11T17:33:30.409Z,0.80
2023-06-11T17:35:57.784Z,1.10
2023-06-11T17:38:24.977Z,2.30
2023-06-11T17:40:51.973Z,1.10
2023-06-11T17:43:20.982Z,1.00
2023-06-11T17:45:49.789Z,1.20
2023-06-11T17:48:17.414Z,1.20
2023-06-11T17:50:46.732Z,1.70
2023-06-11T17:53:13.777Z,1.10
2023-06-11T17:55:41.089Z,1.10
2023-06-11T17:58:07.832Z,1.30
2023-06-11T18:00:35.608Z,0.70
2023-06-11T18:03:03.249Z,0.70
2023-06-11T18:05:30.139Z,1.30
2023-06-11T18:07:57.313Z,1.00
2023-06-11T18:10:24.289Z,1.00
2023-06-11T18:12:51.984Z,0.90
2023-06-11T18:17:51.427Z,1.30
2023-06-11T18:20:18.488Z,0.80
2023-06-11T18:22:45.881Z,1.00
2023-06-11T18:25:13.026Z,1.20
2023-06-11T18:27:41.775Z,1.00
2023-06-11T18:30:09.319Z,1.70
2023-06-11T18:32:38.801Z,1.00
2023-06-11T18:35:06.269Z,0.60
2023-06-11T18:37:33.246Z,0.90
2023-06-11T18:40:00.958Z,0.90
2023-06-11T18:42:27.885Z,2.40
2023-06-11T18:44:54.757Z,6.10
2023-06-11T18:47:21.915Z,2.10
2023-06-11T18:49:48.884Z,1.20
2023-06-11T18:52:15.702Z,1.70
2023-06-11T18:54:42.483Z,3.60
2023-06-11T18:57:09.649Z,2.10
2023-06-11T18:59:38.996Z,1.70
2023-06-11T19:02:06.652Z,1.20
2023-06-11T19:04:33.846Z,1.10
2023-06-11T19:07:01.630Z,1.10
2023-06-11T19:09:28.610Z,1.20
2023-06-11T19:11:55.763Z,1.30
2023-06-11T19:14:22.710Z,1.30
2023-06-11T19:16:49.920Z,0.80
2023-06-11T19:19:18.148Z,1.00
2023-06-11T19:21:45.343Z,1.00
2023-06-11T19:24:12.403Z,0.90
2023-06-11T19:26:39.371Z,0.80
2023-06-11T19:29:06.045Z,1.10
2023-06-11T19:31:33.977Z,1.10
2023-06-11T19:34:01.784Z,1.00
2023-06-11T19:36:28.937Z,1.00
2023-06-11T19:38:55.758Z,1.00
2023-06-11T19:41:22.551Z,1.00
2023-06-11T19:43:49.402Z,1.10
2023-06-11T19:46:16.452Z,1.50
2023-06-11T19:48:43.286Z,2.20
2023-06-11T19:51:12.003Z,5.20
2023-06-11T19:56:06.141Z,4.70
2023-06-11T19:58:33.252Z,4.20
2023-06-11T20:01:00.028Z,3.10
2023-06-11T20:03:27.004Z,1.90
2023-06-11T20:05:53.760Z,1.70
2023-06-11T20:08:21.385Z,1.10
2023-06-11T20:10:48.568Z,1.10
2023-06-11T20:13:15.385Z,1.30
2023-06-11T20:15:42.248Z,1.10
2023-06-11T20:18:09.232Z,1.20
2023-06-11T20:20:36.144Z,1.40
2023-06-11T20:23:03.264Z,1.10
2023-06-11T20:25:30.601Z,1.30
2023-06-11T20:27:57.388Z,1.30
2023-06-11T20:30:24.259Z,1.20
2023-06-11T20:32:52.342Z,1.10
2023-06-11T20:35:19.152Z,1.20
2023-06-11T20:37:46.159Z,1.10
2023-06-11T20:40:13.400Z,0.90
2023-06-11T20:42:41.022Z,0.80
2023-06-11T20:45:10.780Z,0.90
2023-06-11T20:47:38.402Z,0.90
2023-06-11T20:50:06.272Z,1.00
2023-06-11T20:52:35.203Z,2.00
2023-06-11T20:55:01.993Z,3.00
2023-06-11T20:57:29.123Z,11.60
2023-06-11T20:59:56.099Z,12.20
2023-06-11T21:02:22.949Z,11.60
2023-06-11T21:04:49.932Z,3.60
2023-06-11T21:07:16.782Z,1.80
2023-06-11T21:09:43.649Z,1.30
2023-06-11T21:12:13.252Z,1.10
2023-06-11T21:14:39.985Z,0.80
2023-06-11T21:17:06.842Z,1.00
2023-06-11T21:19:34.496Z,1.00
2023-06-11T21:22:01.517Z,1.00
2023-06-11T21:24:28.356Z,1.30
2023-06-11T21:26:55.145Z,0.90
2023-06-11T21:29:22.155Z,1.00
2023-06-11T21:31:50.824Z,1.20
2023-06-11T21:34:17.538Z,0.90
2023-06-11T21:36:44.332Z,0.90
2023-06-11T21:39:11.107Z,1.20
2023-06-11T21:41:38.153Z,1.30
2023-06-11T21:44:05.340Z,0.90
2023-06-11T21:46:32.449Z,1.00
2023-06-11T21:48:59.403Z,1.10
2023-06-11T21:51:28.516Z,1.70
2023-06-11T21:53:55.234Z,5.90
2023-06-11T21:56:21.955Z,2.50
2023-06-11T21:58:48.698Z,1.80
2023-06-11T22:01:15.740Z,1.40
2023-06-11T22:03:42.512Z,1.10
2023-06-11T22:06:09.495Z,1.30
2023-06-11T22:08:37.813Z,1.20
2023-06-11T22:11:04.754Z,1.30
2023-06-11T22:13:34.033Z,1.10
2023-06-11T22:16:01.149Z,1.10
2023-06-11T22:18:29.449Z,1.20
2023-06-11T22:20:57.565Z,1.50
2023-06-11T22:23:40.931Z,1.20
2023-06-11T22:26:12.168Z,1.00
2023-06-11T22:28:39.098Z,0.90
2023-06-11T22:31:06.160Z,1.20
2023-06-11T22:33:33.060Z,0.90
2023-06-11T22:35:59.962Z,1.20
2023-06-11T22:38:26.673Z,1.30
2023-06-11T22:40:53.346Z,1.00
2023-06-11T22:43:20.605Z,1.10
2023-06-11T22:45:47.401Z,1.30
2023-06-11T22:48:14.543Z,1.70
2023-06-11T22:50:41.280Z,2.50
2023-06-11T22:53:07.978Z,1.70
2023-06-11T22:55:34.973Z,2.40
2023-06-11T22:58:02.086Z,1.40
2023-06-11T23:00:28.871Z,0.90
2023-06-11T23:02:55.766Z,0.70
2023-06-11T23:05:22.644Z,0.90
2023-06-11T23:07:50.447Z,1.10
2023-06-11T23:11:21.330Z,1.10
2023-06-11T23:13:48.807Z,1.10
2023-06-11T23:16:15.591Z,1.40
2023-06-11T23:18:46.534Z,1.40
2023-06-11T23:21:13.560Z,0.90
2023-06-11T23:23:43.019Z,0.80
2023-06-11T23:26:10.990Z,0.90
2023-06-11T23:28:38.232Z,0.90
2023-06-11T23:31:05.035Z,0.90
2023-06-11T23:33:32.137Z,1.30
2023-06-11T23:36:00.166Z,1.00
2023-06-11T23:38:27.240Z,0.90
2023-06-11T23:40:54.303Z,1.00
2023-06-11T23:43:21.505Z,1.30
2023-06-11T23:45:48.379Z,1.20
2023-06-11T23:48:15.814Z,1.30
2023-06-11T23:50:43.318Z,1.00
2023-06-11T23:53:10.825Z,1.30
2023-06-11T23:55:37.850Z,1.00
2023-06-11T23:58:18.370Z,1.00
